sensor_id;sensor_type;location;lat;lon;timestamp;temperature;humidity
11385;DHT22;5747;56.748;13.882;2024-02-23T00:01:45;5.10;99.90
11385;DHT22;5747;56.748;13.882;2024-02-23T00:04:13;5.20;99.90
11385;DHT22;5747;56.748;13.882;2024-02-23T00:06:42;5.20;99.90
11385;DHT22;5747;56.748;13.882;2024-02-23T00:09:10;5.20;99.90
11385;DHT22;5747;56.748;13.882;2024-02-23T00:11:39;5.20;99.90
11385;DHT22;5747;56.748;13.882;2024-02-23T00:14:13;5.20;99.90
11385;DHT22;5747;56.748;13.882;2024-02-23T00:16:41;5.20;99.90
11385;DHT22;5747;56.748;13.882;2024-02-23T00:19:10;5.20;99.90
11385;DHT22;5747;56.748;13.882;2024-02-23T00:21:38;5.20;99.90
11385;DHT22;5747;56.748;13.882;2024-02-23T00:24:07;5.20;99.90
11385;DHT22;5747;56.748;13.882;2024-02-23T00:26:35;5.20;99.90
11385;DHT22;5747;56.748;13.882;2024-02-23T00:29:03;5.20;99.90
11385;DHT22;5747;56.748;13.882;2024-02-23T00:31:33;5.20;99.90
11385;DHT22;5747;56.748;13.882;2024-02-23T00:34:01;5.20;99.90
11385;DHT22;5747;56.748;13.882;2024-02-23T00:36:29;5.20;99.90
11385;DHT22;5747;56.748;13.882;2024-02-23T00:38:58;5.30;99.90
11385;DHT22;5747;56.748;13.882;2024-02-23T00:41:26;5.30;99.90
11385;DHT22;5747;56.748;13.882;2024-02-23T00:43:54;5.30;99.90
11385;DHT22;5747;56.748;13.882;2024-02-23T00:46:23;5.30;99.90
11385;DHT22;5747;56.748;13.882;2024-02-23T00:48:52;5.30;99.90
11385;DHT22;5747;56.748;13.882;2024-02-23T00:51:21;5.30;99.90
11385;DHT22;5747;56.748;13.882;2024-02-23T00:53:49;5.30;99.90
11385;DHT22;5747;56.748;13.882;2024-02-23T00:56:17;5.30;99.90
11385;DHT22;5747;56.748;13.882;2024-02-23T00:58:49;5.30;99.90
11385;DHT22;5747;56.748;13.882;2024-02-23T01:01:17;5.30;99.90
11385;DHT22;5747;56.748;13.882;2024-02-23T01:03:45;5.30;99.90
11385;DHT22;5747;56.748;13.882;2024-02-23T01:06:15;5.40;99.90
11385;DHT22;5747;56.748;13.882;2024-02-23T01:08:44;5.40;99.90
11385;DHT22;5747;56.748;13.882;2024-02-23T01:11:12;5.40;99.90
11385;DHT22;5747;56.748;13.882;2024-02-23T01:13:40;5.40;99.90
11385;DHT22;5747;56.748;13.882;2024-02-23T01:16:08;5.40;99.90
11385;DHT22;5747;56.748;13.882;2024-02-23T01:18:36;5.40;99.90
11385;DHT22;5747;56.748;13.882;2024-02-23T01:21:05;5.50;99.90
11385;DHT22;5747;56.748;13.882;2024-02-23T01:23:35;5.50;99.90
11385;DHT22;5747;56.748;13.882;2024-02-23T01:26:03;5.50;99.90
11385;DHT22;5747;56.748;13.882;2024-02-23T01:28:31;5.50;99.90
11385;DHT22;5747;56.748;13.882;2024-02-23T01:30:59;5.60;99.90
11385;DHT22;5747;56.748;13.882;2024-02-23T01:33:28;5.60;99.90
11385;DHT22;5747;56.748;13.882;2024-02-23T01:35:56;5.60;99.90
11385;DHT22;5747;56.748;13.882;2024-02-23T01:38:25;5.60;99.90
11385;DHT22;5747;56.748;13.882;2024-02-23T01:40:59;5.60;99.90
11385;DHT22;5747;56.748;13.882;2024-02-23T01:43:27;5.70;99.90
11385;DHT22;5747;56.748;13.882;2024-02-23T01:45:55;5.70;99.90
11385;DHT22;5747;56.748;13.882;2024-02-23T01:48:23;5.70;99.90
11385;DHT22;5747;56.748;13.882;2024-02-23T01:50:54;5.70;99.90
11385;DHT22;5747;56.748;13.882;2024-02-23T01:53:22;5.70;99.90
11385;DHT22;5747;56.748;13.882;2024-02-23T01:55:53;5.70;99.90
11385;DHT22;5747;56.748;13.882;2024-02-23T01:58:24;5.70;99.90
11385;DHT22;5747;56.748;13.882;2024-02-23T02:00:52;5.70;99.90
11385;DHT22;5747;56.748;13.882;2024-02-23T02:03:21;5.70;99.90
11385;DHT22;5747;56.748;13.882;2024-02-23T02:05:50;5.70;99.90
11385;DHT22;5747;56.748;13.882;2024-02-23T02:08:19;5.80;99.90
11385;DHT22;5747;56.748;13.882;2024-02-23T02:10:48;5.80;99.90
11385;DHT22;5747;56.748;13.882;2024-02-23T02:13:16;5.80;99.90
11385;DHT22;5747;56.748;13.882;2024-02-23T02:15:46;5.80;99.90
11385;DHT22;5747;56.748;13.882;2024-02-23T02:18:14;5.80;99.90
11385;DHT22;5747;56.748;13.882;2024-02-23T02:20:51;5.80;99.90
11385;DHT22;5747;56.748;13.882;2024-02-23T02:23:20;5.80;99.90
11385;DHT22;5747;56.748;13.882;2024-02-23T02:25:52;5.80;99.90
11385;DHT22;5747;56.748;13.882;2024-02-23T02:28:21;5.80;99.90
11385;DHT22;5747;56.748;13.882;2024-02-23T02:30:51;5.90;99.90
11385;DHT22;5747;56.748;13.882;2024-02-23T02:33:19;5.90;99.90
11385;DHT22;5747;56.748;13.882;2024-02-23T02:35:48;5.90;99.90
11385;DHT22;5747;56.748;13.882;2024-02-23T02:38:16;5.90;99.90
11385;DHT22;5747;56.748;13.882;2024-02-23T02:40:45;5.90;99.90
11385;DHT22;5747;56.748;13.882;2024-02-23T02:43:13;5.90;99.90
11385;DHT22;5747;56.748;13.882;2024-02-23T02:45:41;6.00;99.90
11385;DHT22;5747;56.748;13.882;2024-02-23T02:48:12;6.00;99.90
11385;DHT22;5747;56.748;13.882;2024-02-23T02:50:40;6.00;99.90
11385;DHT22;5747;56.748;13.882;2024-02-23T02:53:08;6.00;99.90
11385;DHT22;5747;56.748;13.882;2024-02-23T02:55:39;6.00;99.90
11385;DHT22;5747;56.748;13.882;2024-02-23T02:58:08;6.10;99.90
11385;DHT22;5747;56.748;13.882;2024-02-23T03:00:36;6.10;99.90
11385;DHT22;5747;56.748;13.882;2024-02-23T03:03:05;6.20;99.90
11385;DHT22;5747;56.748;13.882;2024-02-23T03:05:34;6.20;99.90
11385;DHT22;5747;56.748;13.882;2024-02-23T03:08:03;6.20;99.90
11385;DHT22;5747;56.748;13.882;2024-02-23T03:10:31;6.30;99.90
11385;DHT22;5747;56.748;13.882;2024-02-23T03:12:59;6.30;99.90
11385;DHT22;5747;56.748;13.882;2024-02-23T03:15:27;6.40;99.90
11385;DHT22;5747;56.748;13.882;2024-02-23T03:17:55;6.30;99.90
11385;DHT22;5747;56.748;13.882;2024-02-23T03:20:24;6.50;99.90
11385;DHT22;5747;56.748;13.882;2024-02-23T03:22:53;6.50;99.90
11385;DHT22;5747;56.748;13.882;2024-02-23T03:25:22;6.60;99.90
11385;DHT22;5747;56.748;13.882;2024-02-23T03:27:50;6.60;99.90
11385;DHT22;5747;56.748;13.882;2024-02-23T03:30:18;6.50;99.90
11385;DHT22;5747;56.748;13.882;2024-02-23T03:32:46;6.60;99.90
11385;DHT22;5747;56.748;13.882;2024-02-23T03:35:15;6.70;99.90
11385;DHT22;5747;56.748;13.882;2024-02-23T03:37:43;6.70;99.90
11385;DHT22;5747;56.748;13.882;2024-02-23T03:40:13;6.70;99.90
11385;DHT22;5747;56.748;13.882;2024-02-23T03:42:42;6.70;99.90
11385;DHT22;5747;56.748;13.882;2024-02-23T03:45:10;6.70;99.90
11385;DHT22;5747;56.748;13.882;2024-02-23T03:47:38;6.80;99.90
11385;DHT22;5747;56.748;13.882;2024-02-23T03:50:09;6.80;99.90
11385;DHT22;5747;56.748;13.882;2024-02-23T03:52:37;6.80;99.90
11385;DHT22;5747;56.748;13.882;2024-02-23T03:55:06;6.80;99.90
11385;DHT22;5747;56.748;13.882;2024-02-23T03:57:36;6.80;99.90
11385;DHT22;5747;56.748;13.882;2024-02-23T04:00:05;6.80;99.90
11385;DHT22;5747;56.748;13.882;2024-02-23T04:02:38;6.90;99.90
11385;DHT22;5747;56.748;13.882;2024-02-23T04:05:07;6.90;99.90
11385;DHT22;5747;56.748;13.882;2024-02-23T04:07:35;6.90;99.90
11385;DHT22;5747;56.748;13.882;2024-02-23T04:10:04;6.90;99.90
11385;DHT22;5747;56.748;13.882;2024-02-23T04:12:33;6.90;99.90
11385;DHT22;5747;56.748;13.882;2024-02-23T04:15:03;6.90;99.90
11385;DHT22;5747;56.748;13.882;2024-02-23T04:17:31;7.00;99.90
11385;DHT22;5747;56.748;13.882;2024-02-23T04:20:06;6.90;99.90
11385;DHT22;5747;56.748;13.882;2024-02-23T04:22:34;6.80;99.90
11385;DHT22;5747;56.748;13.882;2024-02-23T04:25:03;6.80;99.90
11385;DHT22;5747;56.748;13.882;2024-02-23T04:27:32;6.80;99.90
11385;DHT22;5747;56.748;13.882;2024-02-23T04:30:00;6.80;99.90
11385;DHT22;5747;56.748;13.882;2024-02-23T04:32:29;6.70;99.90
11385;DHT22;5747;56.748;13.882;2024-02-23T04:34:58;6.60;99.90
11385;DHT22;5747;56.748;13.882;2024-02-23T04:37:26;6.30;99.90
11385;DHT22;5747;56.748;13.882;2024-02-23T04:39:54;6.20;99.90
11385;DHT22;5747;56.748;13.882;2024-02-23T04:42:23;6.00;99.90
11385;DHT22;5747;56.748;13.882;2024-02-23T04:44:51;5.80;99.90
11385;DHT22;5747;56.748;13.882;2024-02-23T04:47:21;5.70;99.90
11385;DHT22;5747;56.748;13.882;2024-02-23T04:49:50;5.60;99.90
11385;DHT22;5747;56.748;13.882;2024-02-23T04:52:19;5.50;99.90
11385;DHT22;5747;56.748;13.882;2024-02-23T04:54:47;5.40;99.90
11385;DHT22;5747;56.748;13.882;2024-02-23T04:57:15;5.30;99.90
11385;DHT22;5747;56.748;13.882;2024-02-23T04:59:43;5.10;99.90
11385;DHT22;5747;56.748;13.882;2024-02-23T05:02:12;4.90;99.90
11385;DHT22;5747;56.748;13.882;2024-02-23T05:04:40;4.80;99.90
11385;DHT22;5747;56.748;13.882;2024-02-23T05:07:10;4.70;99.90
11385;DHT22;5747;56.748;13.882;2024-02-23T05:09:38;4.60;99.90
11385;DHT22;5747;56.748;13.882;2024-02-23T05:12:08;4.60;99.90
11385;DHT22;5747;56.748;13.882;2024-02-23T05:14:36;4.50;99.90
11385;DHT22;5747;56.748;13.882;2024-02-23T05:17:05;4.40;99.90
11385;DHT22;5747;56.748;13.882;2024-02-23T05:19:33;4.30;99.90
11385;DHT22;5747;56.748;13.882;2024-02-23T05:22:01;4.30;99.90
11385;DHT22;5747;56.748;13.882;2024-02-23T05:24:32;4.20;99.90
11385;DHT22;5747;56.748;13.882;2024-02-23T05:27:00;4.10;99.90
11385;DHT22;5747;56.748;13.882;2024-02-23T05:29:29;4.10;99.90
11385;DHT22;5747;56.748;13.882;2024-02-23T05:31:58;4.00;99.90
11385;DHT22;5747;56.748;13.882;2024-02-23T05:34:26;4.00;99.90
11385;DHT22;5747;56.748;13.882;2024-02-23T05:36:54;4.00;99.90
11385;DHT22;5747;56.748;13.882;2024-02-23T05:39:22;4.00;99.90
11385;DHT22;5747;56.748;13.882;2024-02-23T05:41:52;3.90;99.90
11385;DHT22;5747;56.748;13.882;2024-02-23T05:44:20;3.90;99.90
11385;DHT22;5747;56.748;13.882;2024-02-23T05:46:49;3.90;99.90
11385;DHT22;5747;56.748;13.882;2024-02-23T05:49:17;4.00;99.90
11385;DHT22;5747;56.748;13.882;2024-02-23T05:51:45;4.10;99.90
11385;DHT22;5747;56.748;13.882;2024-02-23T05:54:13;4.10;99.90
11385;DHT22;5747;56.748;13.882;2024-02-23T05:56:44;4.10;99.90
11385;DHT22;5747;56.748;13.882;2024-02-23T05:59:13;4.20;99.90
11385;DHT22;5747;56.748;13.882;2024-02-23T06:01:41;4.20;99.90
11385;DHT22;5747;56.748;13.882;2024-02-23T06:04:10;4.30;99.90
11385;DHT22;5747;56.748;13.882;2024-02-23T06:06:41;4.30;99.90
11385;DHT22;5747;56.748;13.882;2024-02-23T06:09:09;4.30;99.90
11385;DHT22;5747;56.748;13.882;2024-02-23T06:11:37;4.30;99.90
11385;DHT22;5747;56.748;13.882;2024-02-23T06:14:06;4.20;99.90
11385;DHT22;5747;56.748;13.882;2024-02-23T06:16:35;4.10;99.90
11385;DHT22;5747;56.748;13.882;2024-02-23T06:19:04;4.00;99.90
11385;DHT22;5747;56.748;13.882;2024-02-23T06:21:32;4.00;99.90
11385;DHT22;5747;56.748;13.882;2024-02-23T06:24:00;3.90;99.90
11385;DHT22;5747;56.748;13.882;2024-02-23T06:26:29;3.70;99.90
11385;DHT22;5747;56.748;13.882;2024-02-23T06:28:58;3.80;99.90
11385;DHT22;5747;56.748;13.882;2024-02-23T06:31:26;3.70;99.90
11385;DHT22;5747;56.748;13.882;2024-02-23T06:33:56;3.80;99.90
11385;DHT22;5747;56.748;13.882;2024-02-23T06:36:24;3.80;99.90
11385;DHT22;5747;56.748;13.882;2024-02-23T06:38:52;3.80;99.90
11385;DHT22;5747;56.748;13.882;2024-02-23T06:41:21;3.80;99.90
11385;DHT22;5747;56.748;13.882;2024-02-23T06:43:49;4.00;99.90
11385;DHT22;5747;56.748;13.882;2024-02-23T06:46:19;4.00;99.90
11385;DHT22;5747;56.748;13.882;2024-02-23T06:48:47;4.10;99.90
11385;DHT22;5747;56.748;13.882;2024-02-23T06:51:17;4.20;99.90
11385;DHT22;5747;56.748;13.882;2024-02-23T06:53:47;4.10;99.90
11385;DHT22;5747;56.748;13.882;2024-02-23T06:56:15;4.20;99.90
11385;DHT22;5747;56.748;13.882;2024-02-23T06:58:43;4.10;99.90
11385;DHT22;5747;56.748;13.882;2024-02-23T07:01:12;4.20;99.90
11385;DHT22;5747;56.748;13.882;2024-02-23T07:03:40;4.20;99.90
11385;DHT22;5747;56.748;13.882;2024-02-23T07:06:10;4.20;99.90
11385;DHT22;5747;56.748;13.882;2024-02-23T07:08:40;4.30;99.90
11385;DHT22;5747;56.748;13.882;2024-02-23T07:11:08;4.30;99.90
11385;DHT22;5747;56.748;13.882;2024-02-23T07:13:36;4.40;99.90
11385;DHT22;5747;56.748;13.882;2024-02-23T07:16:05;4.30;99.90
11385;DHT22;5747;56.748;13.882;2024-02-23T07:18:34;4.40;99.90
11385;DHT22;5747;56.748;13.882;2024-02-23T07:21:02;4.40;99.90
11385;DHT22;5747;56.748;13.882;2024-02-23T07:23:30;4.30;99.90
11385;DHT22;5747;56.748;13.882;2024-02-23T07:26:00;4.40;99.90
11385;DHT22;5747;56.748;13.882;2024-02-23T07:28:28;4.50;99.90
11385;DHT22;5747;56.748;13.882;2024-02-23T07:30:57;4.40;99.90
11385;DHT22;5747;56.748;13.882;2024-02-23T07:33:25;4.40;99.90
11385;DHT22;5747;56.748;13.882;2024-02-23T07:35:54;4.60;99.90
11385;DHT22;5747;56.748;13.882;2024-02-23T07:38:22;4.60;99.90
11385;DHT22;5747;56.748;13.882;2024-02-23T07:40:50;4.60;99.90
11385;DHT22;5747;56.748;13.882;2024-02-23T07:43:20;4.70;99.90
11385;DHT22;5747;56.748;13.882;2024-02-23T07:45:48;4.70;99.90
11385;DHT22;5747;56.748;13.882;2024-02-23T07:48:16;4.70;99.90
11385;DHT22;5747;56.748;13.882;2024-02-23T07:50:44;4.70;99.90
11385;DHT22;5747;56.748;13.882;2024-02-23T07:53:13;4.80;99.90
11385;DHT22;5747;56.748;13.882;2024-02-23T07:55:41;4.80;99.90
11385;DHT22;5747;56.748;13.882;2024-02-23T07:58:09;4.80;99.90
11385;DHT22;5747;56.748;13.882;2024-02-23T08:00:39;4.80;99.90
11385;DHT22;5747;56.748;13.882;2024-02-23T08:03:07;4.80;99.90
11385;DHT22;5747;56.748;13.882;2024-02-23T08:05:35;4.80;99.90
11385;DHT22;5747;56.748;13.882;2024-02-23T08:08:04;4.80;99.90
11385;DHT22;5747;56.748;13.882;2024-02-23T08:10:34;4.90;99.90
11385;DHT22;5747;56.748;13.882;2024-02-23T08:13:02;4.90;99.90
11385;DHT22;5747;56.748;13.882;2024-02-23T08:15:30;5.00;99.90
11385;DHT22;5747;56.748;13.882;2024-02-23T08:18:00;5.00;99.90
11385;DHT22;5747;56.748;13.882;2024-02-23T08:20:28;5.10;99.90
11385;DHT22;5747;56.748;13.882;2024-02-23T08:22:56;5.30;99.90
11385;DHT22;5747;56.748;13.882;2024-02-23T08:25:24;5.30;99.90
11385;DHT22;5747;56.748;13.882;2024-02-23T08:27:55;5.30;99.90
11385;DHT22;5747;56.748;13.882;2024-02-23T08:30:24;5.40;99.90
11385;DHT22;5747;56.748;13.882;2024-02-23T08:32:52;5.60;99.90
11385;DHT22;5747;56.748;13.882;2024-02-23T08:35:22;5.60;99.90
11385;DHT22;5747;56.748;13.882;2024-02-23T08:37:50;5.70;99.90
11385;DHT22;5747;56.748;13.882;2024-02-23T08:40:18;5.80;99.90
11385;DHT22;5747;56.748;13.882;2024-02-23T08:42:46;6.00;99.90
11385;DHT22;5747;56.748;13.882;2024-02-23T08:45:16;6.00;99.90
11385;DHT22;5747;56.748;13.882;2024-02-23T08:47:44;5.90;99.90
11385;DHT22;5747;56.748;13.882;2024-02-23T08:50:13;5.90;99.90
11385;DHT22;5747;56.748;13.882;2024-02-23T08:52:43;5.80;99.90
11385;DHT22;5747;56.748;13.882;2024-02-23T08:55:11;5.90;99.90
11385;DHT22;5747;56.748;13.882;2024-02-23T08:57:39;5.90;99.90
11385;DHT22;5747;56.748;13.882;2024-02-23T09:00:09;6.00;99.90
11385;DHT22;5747;56.748;13.882;2024-02-23T09:02:41;6.00;99.90
11385;DHT22;5747;56.748;13.882;2024-02-23T09:05:09;5.90;99.90
11385;DHT22;5747;56.748;13.882;2024-02-23T09:07:38;5.90;99.90
11385;DHT22;5747;56.748;13.882;2024-02-23T09:10:09;6.00;99.90
11385;DHT22;5747;56.748;13.882;2024-02-23T09:12:38;6.00;99.90
11385;DHT22;5747;56.748;13.882;2024-02-23T09:15:07;6.00;99.90
11385;DHT22;5747;56.748;13.882;2024-02-23T09:17:35;6.10;99.90
11385;DHT22;5747;56.748;13.882;2024-02-23T09:20:05;6.00;99.90
11385;DHT22;5747;56.748;13.882;2024-02-23T09:22:34;6.10;99.90
11385;DHT22;5747;56.748;13.882;2024-02-23T09:25:04;6.20;99.90
11385;DHT22;5747;56.748;13.882;2024-02-23T09:27:34;6.20;99.90
11385;DHT22;5747;56.748;13.882;2024-02-23T09:30:11;6.30;99.90
11385;DHT22;5747;56.748;13.882;2024-02-23T09:32:41;6.40;99.90
11385;DHT22;5747;56.748;13.882;2024-02-23T09:35:09;6.40;99.90
11385;DHT22;5747;56.748;13.882;2024-02-23T09:37:37;6.30;99.90
11385;DHT22;5747;56.748;13.882;2024-02-23T09:40:07;6.30;99.90
11385;DHT22;5747;56.748;13.882;2024-02-23T09:42:36;6.30;99.90
11385;DHT22;5747;56.748;13.882;2024-02-23T09:45:06;6.30;99.90
11385;DHT22;5747;56.748;13.882;2024-02-23T09:47:35;6.40;99.90
11385;DHT22;5747;56.748;13.882;2024-02-23T09:50:04;6.40;99.90
11385;DHT22;5747;56.748;13.882;2024-02-23T09:52:33;6.40;99.90
11385;DHT22;5747;56.748;13.882;2024-02-23T09:55:02;6.20;99.90
11385;DHT22;5747;56.748;13.882;2024-02-23T09:57:31;6.00;99.90
11385;DHT22;5747;56.748;13.882;2024-02-23T10:00:01;5.90;99.90
11385;DHT22;5747;56.748;13.882;2024-02-23T10:02:39;5.90;99.90
11385;DHT22;5747;56.748;13.882;2024-02-23T10:05:08;6.00;99.90
11385;DHT22;5747;56.748;13.882;2024-02-23T10:07:38;6.20;99.90
11385;DHT22;5747;56.748;13.882;2024-02-23T10:10:07;6.20;99.90
11385;DHT22;5747;56.748;13.882;2024-02-23T10:12:36;6.30;99.90
11385;DHT22;5747;56.748;13.882;2024-02-23T10:15:07;6.50;99.90
11385;DHT22;5747;56.748;13.882;2024-02-23T10:17:35;6.60;99.90
11385;DHT22;5747;56.748;13.882;2024-02-23T10:20:04;6.60;99.90
11385;DHT22;5747;56.748;13.882;2024-02-23T10:22:33;6.60;99.90
11385;DHT22;5747;56.748;13.882;2024-02-23T10:25:02;6.50;99.90
11385;DHT22;5747;56.748;13.882;2024-02-23T10:27:30;6.60;99.90
11385;DHT22;5747;56.748;13.882;2024-02-23T10:29:58;6.70;99.90
11385;DHT22;5747;56.748;13.882;2024-02-23T10:32:29;6.80;99.90
11385;DHT22;5747;56.748;13.882;2024-02-23T10:35:00;6.80;99.90
11385;DHT22;5747;56.748;13.882;2024-02-23T10:37:31;6.70;99.90
11385;DHT22;5747;56.748;13.882;2024-02-23T10:40:01;6.60;99.90
11385;DHT22;5747;56.748;13.882;2024-02-23T10:42:34;6.50;99.90
11385;DHT22;5747;56.748;13.882;2024-02-23T10:45:05;6.70;99.90
11385;DHT22;5747;56.748;13.882;2024-02-23T10:47:35;6.70;99.90
11385;DHT22;5747;56.748;13.882;2024-02-23T10:50:06;6.70;99.90
11385;DHT22;5747;56.748;13.882;2024-02-23T10:52:35;6.70;99.90
11385;DHT22;5747;56.748;13.882;2024-02-23T10:55:04;6.70;99.90
11385;DHT22;5747;56.748;13.882;2024-02-23T10:57:34;6.80;99.90
11385;DHT22;5747;56.748;13.882;2024-02-23T11:00:04;6.80;99.90
11385;DHT22;5747;56.748;13.882;2024-02-23T11:02:40;6.80;99.90
11385;DHT22;5747;56.748;13.882;2024-02-23T11:05:09;6.90;99.90
11385;DHT22;5747;56.748;13.882;2024-02-23T11:07:40;7.00;99.90
11385;DHT22;5747;56.748;13.882;2024-02-23T11:10:08;7.00;99.90
11385;DHT22;5747;56.748;13.882;2024-02-23T11:12:37;7.00;99.90
11385;DHT22;5747;56.748;13.882;2024-02-23T11:15:05;6.80;99.90
11385;DHT22;5747;56.748;13.882;2024-02-23T11:17:35;6.80;99.90
11385;DHT22;5747;56.748;13.882;2024-02-23T11:20:07;6.70;99.90
11385;DHT22;5747;56.748;13.882;2024-02-23T11:22:36;6.60;99.90
11385;DHT22;5747;56.748;13.882;2024-02-23T11:25:07;6.60;99.90
11385;DHT22;5747;56.748;13.882;2024-02-23T11:27:37;6.70;99.90
11385;DHT22;5747;56.748;13.882;2024-02-23T11:30:10;6.70;99.90
11385;DHT22;5747;56.748;13.882;2024-02-23T11:32:40;6.70;99.90
11385;DHT22;5747;56.748;13.882;2024-02-23T11:35:13;6.70;99.90
11385;DHT22;5747;56.748;13.882;2024-02-23T11:37:46;6.60;99.90
11385;DHT22;5747;56.748;13.882;2024-02-23T11:40:15;6.40;99.90
11385;DHT22;5747;56.748;13.882;2024-02-23T11:42:43;6.50;99.90
11385;DHT22;5747;56.748;13.882;2024-02-23T11:45:11;6.50;99.90
11385;DHT22;5747;56.748;13.882;2024-02-23T11:47:39;6.60;99.90
11385;DHT22;5747;56.748;13.882;2024-02-23T11:50:11;6.70;99.90
11385;DHT22;5747;56.748;13.882;2024-02-23T11:52:40;6.80;99.90
11385;DHT22;5747;56.748;13.882;2024-02-23T11:55:08;6.80;99.90
11385;DHT22;5747;56.748;13.882;2024-02-23T11:57:38;6.90;99.90
11385;DHT22;5747;56.748;13.882;2024-02-23T12:00:15;6.80;99.90
11385;DHT22;5747;56.748;13.882;2024-02-23T12:02:43;6.70;99.90
11385;DHT22;5747;56.748;13.882;2024-02-23T12:05:13;6.80;99.90
11385;DHT22;5747;56.748;13.882;2024-02-23T12:07:42;6.70;99.90
11385;DHT22;5747;56.748;13.882;2024-02-23T12:10:14;6.70;99.90
11385;DHT22;5747;56.748;13.882;2024-02-23T12:12:42;6.80;99.90
11385;DHT22;5747;56.748;13.882;2024-02-23T12:15:11;6.70;99.90
11385;DHT22;5747;56.748;13.882;2024-02-23T12:17:46;6.40;99.90
11385;DHT22;5747;56.748;13.882;2024-02-23T12:20:17;6.20;99.90
11385;DHT22;5747;56.748;13.882;2024-02-23T12:22:47;6.20;99.90
11385;DHT22;5747;56.748;13.882;2024-02-23T12:25:15;6.30;99.90
11385;DHT22;5747;56.748;13.882;2024-02-23T12:27:43;6.40;99.90
11385;DHT22;5747;56.748;13.882;2024-02-23T12:30:13;6.50;99.90
11385;DHT22;5747;56.748;13.882;2024-02-23T12:32:42;6.60;99.90
11385;DHT22;5747;56.748;13.882;2024-02-23T12:35:11;6.90;99.90
11385;DHT22;5747;56.748;13.882;2024-02-23T12:37:43;7.10;99.90
11385;DHT22;5747;56.748;13.882;2024-02-23T12:40:12;7.10;99.90
11385;DHT22;5747;56.748;13.882;2024-02-23T12:42:41;6.90;99.90
11385;DHT22;5747;56.748;13.882;2024-02-23T12:45:09;6.80;99.90
11385;DHT22;5747;56.748;13.882;2024-02-23T12:47:37;6.60;99.90
11385;DHT22;5747;56.748;13.882;2024-02-23T12:50:07;6.30;99.90
11385;DHT22;5747;56.748;13.882;2024-02-23T12:52:37;6.10;99.90
11385;DHT22;5747;56.748;13.882;2024-02-23T12:55:07;6.00;99.90
11385;DHT22;5747;56.748;13.882;2024-02-23T12:57:36;6.10;99.90
11385;DHT22;5747;56.748;13.882;2024-02-23T13:00:05;5.80;99.90
11385;DHT22;5747;56.748;13.882;2024-02-23T13:02:35;5.60;99.90
11385;DHT22;5747;56.748;13.882;2024-02-23T13:05:03;5.40;99.90
11385;DHT22;5747;56.748;13.882;2024-02-23T13:07:32;5.20;99.90
11385;DHT22;5747;56.748;13.882;2024-02-23T13:10:00;5.20;99.90
11385;DHT22;5747;56.748;13.882;2024-02-23T13:12:29;5.20;99.90
11385;DHT22;5747;56.748;13.882;2024-02-23T13:14:58;5.10;99.90
11385;DHT22;5747;56.748;13.882;2024-02-23T13:17:26;5.10;99.90
11385;DHT22;5747;56.748;13.882;2024-02-23T13:19:54;4.80;99.90
11385;DHT22;5747;56.748;13.882;2024-02-23T13:22:37;4.30;99.90
11385;DHT22;5747;56.748;13.882;2024-02-23T13:25:05;3.70;99.90
11385;DHT22;5747;56.748;13.882;2024-02-23T13:27:35;3.30;99.90
11385;DHT22;5747;56.748;13.882;2024-02-23T13:30:04;2.80;99.90
11385;DHT22;5747;56.748;13.882;2024-02-23T13:32:34;3.20;99.90
11385;DHT22;5747;56.748;13.882;2024-02-23T13:35:02;3.70;99.90
11385;DHT22;5747;56.748;13.882;2024-02-23T13:37:33;4.20;99.90
11385;DHT22;5747;56.748;13.882;2024-02-23T13:40:01;4.60;99.90
11385;DHT22;5747;56.748;13.882;2024-02-23T13:42:30;4.80;99.90
11385;DHT22;5747;56.748;13.882;2024-02-23T13:45:00;5.00;99.90
11385;DHT22;5747;56.748;13.882;2024-02-23T13:47:29;5.10;99.90
11385;DHT22;5747;56.748;13.882;2024-02-23T13:49:57;5.10;99.90
11385;DHT22;5747;56.748;13.882;2024-02-23T13:52:25;5.00;99.90
11385;DHT22;5747;56.748;13.882;2024-02-23T13:54:54;5.10;99.90
11385;DHT22;5747;56.748;13.882;2024-02-23T13:57:22;5.20;99.90
11385;DHT22;5747;56.748;13.882;2024-02-23T13:59:50;5.20;99.90
11385;DHT22;5747;56.748;13.882;2024-02-23T14:02:25;5.20;99.90
11385;DHT22;5747;56.748;13.882;2024-02-23T14:05:01;5.20;99.90
11385;DHT22;5747;56.748;13.882;2024-02-23T14:07:31;5.00;99.90
11385;DHT22;5747;56.748;13.882;2024-02-23T14:09:59;5.00;99.90
11385;DHT22;5747;56.748;13.882;2024-02-23T14:12:28;4.90;99.90
11385;DHT22;5747;56.748;13.882;2024-02-23T14:14:56;4.70;99.90
11385;DHT22;5747;56.748;13.882;2024-02-23T14:17:26;4.70;99.90
11385;DHT22;5747;56.748;13.882;2024-02-23T14:19:54;4.70;99.90
11385;DHT22;5747;56.748;13.882;2024-02-23T14:22:23;4.60;99.90
11385;DHT22;5747;56.748;13.882;2024-02-23T14:24:51;4.60;99.90
11385;DHT22;5747;56.748;13.882;2024-02-23T14:27:19;4.60;99.90
11385;DHT22;5747;56.748;13.882;2024-02-23T14:29:47;4.60;99.90
11385;DHT22;5747;56.748;13.882;2024-02-23T14:32:17;4.60;99.90
11385;DHT22;5747;56.748;13.882;2024-02-23T14:34:48;4.60;99.90
11385;DHT22;5747;56.748;13.882;2024-02-23T14:37:16;4.70;99.90
11385;DHT22;5747;56.748;13.882;2024-02-23T14:39:45;4.60;99.90
11385;DHT22;5747;56.748;13.882;2024-02-23T14:42:14;4.60;99.90
11385;DHT22;5747;56.748;13.882;2024-02-23T14:44:42;4.60;99.90
11385;DHT22;5747;56.748;13.882;2024-02-23T14:47:10;4.60;99.90
11385;DHT22;5747;56.748;13.882;2024-02-23T14:49:39;4.60;99.90
11385;DHT22;5747;56.748;13.882;2024-02-23T14:52:09;4.60;99.90
11385;DHT22;5747;56.748;13.882;2024-02-23T14:54:37;4.60;99.90
11385;DHT22;5747;56.748;13.882;2024-02-23T14:57:06;4.60;99.90
11385;DHT22;5747;56.748;13.882;2024-02-23T14:59:34;4.60;99.90
11385;DHT22;5747;56.748;13.882;2024-02-23T15:02:09;4.60;99.90
11385;DHT22;5747;56.748;13.882;2024-02-23T15:04:39;4.60;99.90
11385;DHT22;5747;56.748;13.882;2024-02-23T15:07:09;4.60;99.90
11385;DHT22;5747;56.748;13.882;2024-02-23T15:09:37;4.60;99.90
11385;DHT22;5747;56.748;13.882;2024-02-23T15:12:07;4.60;99.90
11385;DHT22;5747;56.748;13.882;2024-02-23T15:14:35;4.60;99.90
11385;DHT22;5747;56.748;13.882;2024-02-23T15:17:04;4.60;99.90
11385;DHT22;5747;56.748;13.882;2024-02-23T15:19:32;4.60;99.90
11385;DHT22;5747;56.748;13.882;2024-02-23T15:22:00;4.60;99.90
11385;DHT22;5747;56.748;13.882;2024-02-23T15:24:30;4.50;99.90
11385;DHT22;5747;56.748;13.882;2024-02-23T15:26:58;4.40;99.90
11385;DHT22;5747;56.748;13.882;2024-02-23T15:29:26;4.40;99.90
11385;DHT22;5747;56.748;13.882;2024-02-23T15:31:55;4.30;99.90
11385;DHT22;5747;56.748;13.882;2024-02-23T15:34:24;4.20;99.90
11385;DHT22;5747;56.748;13.882;2024-02-23T15:36:52;4.10;99.90
11385;DHT22;5747;56.748;13.882;2024-02-23T15:39:20;4.00;99.90
11385;DHT22;5747;56.748;13.882;2024-02-23T15:41:50;4.10;99.90
11385;DHT22;5747;56.748;13.882;2024-02-23T15:44:19;4.10;99.90
11385;DHT22;5747;56.748;13.882;2024-02-23T15:46:47;4.10;99.90
11385;DHT22;5747;56.748;13.882;2024-02-23T15:49:15;4.20;99.90
11385;DHT22;5747;56.748;13.882;2024-02-23T15:52:05;4.20;99.90
11385;DHT22;5747;56.748;13.882;2024-02-23T15:54:34;4.30;99.90
11385;DHT22;5747;56.748;13.882;2024-02-23T15:57:04;4.30;99.90